sensor_id;sensor_type;location;lat;lon;timestamp;pressure;altitude;pressure_sealevel;temperature;humidity
66703;BME280;60933;46.398;-63.798;2022-10-16T00:01:09;101751.16;;;15.99;81.12
66703;BME280;60933;46.398;-63.798;2022-10-16T00:03:38;101736.50;;;15.96;81.55
66703;BME280;60933;46.398;-63.798;2022-10-16T00:06:05;101737.25;;;16.00;81.98
66703;BME280;60933;46.398;-63.798;2022-10-16T00:08:31;101733.81;;;15.98;81.99
66703;BME280;60933;46.398;-63.798;2022-10-16T00:11:03;101733.88;;;15.96;81.49
66703;BME280;60933;46.398;-63.798;2022-10-16T00:13:31;101734.69;;;15.98;81.30
66703;BME280;60933;46.398;-63.798;2022-10-16T00:15:58;101727.78;;;15.97;81.07
66703;BME280;60933;46.398;-63.798;2022-10-16T00:18:25;101735.53;;;15.99;81.35
66703;BME280;60933;46.398;-63.798;2022-10-16T00:20:52;101726.94;;;15.97;81.36
66703;BME280;60933;46.398;-63.798;2022-10-16T00:23:18;101728.69;;;15.96;80.95
66703;BME280;60933;46.398;-63.798;2022-10-16T00:25:44;101723.41;;;15.98;81.43
66703;BME280;60933;46.398;-63.798;2022-10-16T00:28:10;101725.19;;;15.97;81.35
66703;BME280;60933;46.398;-63.798;2022-10-16T00:30:39;101718.25;;;15.96;80.96
66703;BME280;60933;46.398;-63.798;2022-10-16T00:33:05;101713.06;;;15.96;81.36
66703;BME280;60933;46.398;-63.798;2022-10-16T00:35:31;101706.94;;;15.97;80.82
66703;BME280;60933;46.398;-63.798;2022-10-16T00:37:57;101692.28;;;15.95;81.07
66703;BME280;60933;46.398;-63.798;2022-10-16T00:40:23;101695.84;;;15.92;80.77
66703;BME280;60933;46.398;-63.798;2022-10-16T00:42:49;101690.66;;;15.91;81.79
66703;BME280;60933;46.398;-63.798;2022-10-16T00:45:16;101667.50;;;15.83;81.08
66703;BME280;60933;46.398;-63.798;2022-10-16T00:47:46;101671.81;;;15.82;81.27
66703;BME280;60933;46.398;-63.798;2022-10-16T00:50:27;101678.84;;;15.80;81.06
66703;BME280;60933;46.398;-63.798;2022-10-16T00:52:54;101675.47;;;15.77;80.79
66703;BME280;60933;46.398;-63.798;2022-10-16T00:55:22;101669.41;;;15.76;81.40
66703;BME280;60933;46.398;-63.798;2022-10-16T00:57:49;101659.03;;;15.75;81.19
66703;BME280;60933;46.398;-63.798;2022-10-16T01:00:19;101669.53;;;15.72;81.82
66703;BME280;60933;46.398;-63.798;2022-10-16T01:02:55;101682.66;;;15.69;81.79
66703;BME280;60933;46.398;-63.798;2022-10-16T01:05:42;101683.66;;;15.64;81.50
66703;BME280;60933;46.398;-63.798;2022-10-16T01:08:34;101675.06;;;15.62;81.53
66703;BME280;60933;46.398;-63.798;2022-10-16T01:11:26;101674.31;;;15.59;82.00
66703;BME280;60933;46.398;-63.798;2022-10-16T01:13:56;101665.78;;;15.54;82.42
66703;BME280;60933;46.398;-63.798;2022-10-16T01:16:46;101671.91;;;15.51;82.86
66703;BME280;60933;46.398;-63.798;2022-10-16T01:21:52;101661.59;;;15.48;82.12
66703;BME280;60933;46.398;-63.798;2022-10-16T01:27:20;101664.44;;;15.40;81.18
66703;BME280;60933;46.398;-63.798;2022-10-16T01:30:18;101675.63;;;15.44;82.89
66703;BME280;60933;46.398;-63.798;2022-10-16T01:32:46;101672.25;;;15.40;82.04
66703;BME280;60933;46.398;-63.798;2022-10-16T01:35:27;101663.63;;;15.38;82.68
66703;BME280;60933;46.398;-63.798;2022-10-16T01:38:33;101657.59;;;15.38;83.14
66703;BME280;60933;46.398;-63.798;2022-10-16T01:41:02;101657.66;;;15.36;82.18
66703;BME280;60933;46.398;-63.798;2022-10-16T01:43:40;101637.00;;;15.30;82.45
66703;BME280;60933;46.398;-63.798;2022-10-16T01:46:08;101639.56;;;15.31;82.93
66703;BME280;60933;46.398;-63.798;2022-10-16T01:48:36;101651.63;;;15.34;82.76
66703;BME280;60933;46.398;-63.798;2022-10-16T01:51:09;101656.88;;;15.32;83.45
66703;BME280;60933;46.398;-63.798;2022-10-16T01:53:39;101654.38;;;15.29;82.50
66703;BME280;60933;46.398;-63.798;2022-10-16T01:56:09;101644.84;;;15.28;83.09
66703;BME280;60933;46.398;-63.798;2022-10-16T01:58:49;101651.78;;;15.29;83.16
66703;BME280;60933;46.398;-63.798;2022-10-16T02:01:19;101651.00;;;15.26;83.68
66703;BME280;60933;46.398;-63.798;2022-10-16T02:03:46;101656.16;;;15.27;83.64
66703;BME280;60933;46.398;-63.798;2022-10-16T02:06:16;101672.66;;;15.26;83.92
66703;BME280;60933;46.398;-63.798;2022-10-16T02:08:42;101664.91;;;15.25;84.07
66703;BME280;60933;46.398;-63.798;2022-10-16T02:11:10;101658.88;;;15.24;83.80
66703;BME280;60933;46.398;-63.798;2022-10-16T02:14:01;101667.44;;;15.26;84.61
66703;BME280;60933;46.398;-63.798;2022-10-16T02:16:40;101662.25;;;15.26;84.31
66703;BME280;60933;46.398;-63.798;2022-10-16T02:19:07;101655.44;;;15.22;83.91
66703;BME280;60933;46.398;-63.798;2022-10-16T02:21:43;101660.66;;;15.22;83.95
66703;BME280;60933;46.398;-63.798;2022-10-16T02:24:29;101664.06;;;15.24;83.42
66703;BME280;60933;46.398;-63.798;2022-10-16T02:27:09;101659.66;;;15.26;83.66
66703;BME280;60933;46.398;-63.798;2022-10-16T02:29:43;101659.66;;;15.26;83.24
66703;BME280;60933;46.398;-63.798;2022-10-16T02:32:16;101662.16;;;15.29;84.02
66703;BME280;60933;46.398;-63.798;2022-10-16T02:34:46;101648.41;;;15.26;83.76
66703;BME280;60933;46.398;-63.798;2022-10-16T02:37:14;101658.88;;;15.24;83.22
66703;BME280;60933;46.398;-63.798;2022-10-16T02:39:44;101655.25;;;15.28;84.43
66703;BME280;60933;46.398;-63.798;2022-10-16T02:42:12;101657.09;;;15.25;83.50
66703;BME280;60933;46.398;-63.798;2022-10-16T02:44:39;101649.22;;;15.28;83.78
66703;BME280;60933;46.398;-63.798;2022-10-16T02:47:05;101651.78;;;15.29;84.34
66703;BME280;60933;46.398;-63.798;2022-10-16T02:49:32;101641.38;;;15.29;83.73
66703;BME280;60933;46.398;-63.798;2022-10-16T02:51:58;101637.91;;;15.29;82.79
66703;BME280;60933;46.398;-63.798;2022-10-16T02:54:24;101636.16;;;15.29;82.66
66703;BME280;60933;46.398;-63.798;2022-10-16T02:56:50;101637.88;;;15.30;83.43
66703;BME280;60933;46.398;-63.798;2022-10-16T02:59:17;101637.00;;;15.30;83.10
66703;BME280;60933;46.398;-63.798;2022-10-16T03:01:43;101631.84;;;15.28;nan
66703;BME280;60933;46.398;-63.798;2022-10-16T03:04:09;101627.50;;;15.29;83.47
66703;BME280;60933;46.398;-63.798;2022-10-16T03:06:35;101617.97;;;15.29;83.42
66703;BME280;60933;46.398;-63.798;2022-10-16T03:09:02;101615.34;;;15.29;84.16
66703;BME280;60933;46.398;-63.798;2022-10-16T03:11:28;101618.09;;;15.25;84.48
66703;BME280;60933;46.398;-63.798;2022-10-16T03:13:54;101617.25;;;15.24;83.46
66703;BME280;60933;46.398;-63.798;2022-10-16T03:16:20;101615.56;;;15.23;83.25
66703;BME280;60933;46.398;-63.798;2022-10-16T03:18:49;101599.06;;;15.23;83.91
66703;BME280;60933;46.398;-63.798;2022-10-16T03:21:16;101592.22;;;15.20;82.94
66703;BME280;60933;46.398;-63.798;2022-10-16T03:23:42;101587.03;;;15.20;83.36
66703;BME280;60933;46.398;-63.798;2022-10-16T03:26:08;101591.31;;;15.21;83.92
66703;BME280;60933;46.398;-63.798;2022-10-16T03:28:34;101575.81;;;15.18;83.21
66703;BME280;60933;46.398;-63.798;2022-10-16T03:31:00;101580.13;;;15.19;83.68
66703;BME280;60933;46.398;-63.798;2022-10-16T03:33:26;101573.38;;;15.13;83.33
66703;BME280;60933;46.398;-63.798;2022-10-16T03:35:53;101587.16;;;15.15;83.67
66703;BME280;60933;46.398;-63.798;2022-10-16T03:38:21;101575.16;;;15.11;83.79
66703;BME280;60933;46.398;-63.798;2022-10-16T03:40:47;101580.31;;;15.13;84.74
66703;BME280;60933;46.398;-63.798;2022-10-16T03:43:13;101581.19;;;15.12;84.91
66703;BME280;60933;46.398;-63.798;2022-10-16T03:45:40;101568.41;;;15.06;85.19
66703;BME280;60933;46.398;-63.798;2022-10-16T03:48:06;101565.88;;;15.02;84.77
66703;BME280;60933;46.398;-63.798;2022-10-16T03:50:32;101569.28;;;15.04;84.31
66703;BME280;60933;46.398;-63.798;2022-10-16T03:52:58;101572.78;;;15.03;84.24
66703;BME280;60933;46.398;-63.798;2022-10-16T03:55:24;101571.94;;;15.03;84.35
66703;BME280;60933;46.398;-63.798;2022-10-16T03:57:50;101555.59;;;14.99;84.49
66703;BME280;60933;46.398;-63.798;2022-10-16T04:00:16;101556.41;;;15.01;84.56
66703;BME280;60933;46.398;-63.798;2022-10-16T04:02:42;101552.19;;;14.97;84.80
66703;BME280;60933;46.398;-63.798;2022-10-16T04:05:09;101552.19;;;14.97;84.52
66703;BME280;60933;46.398;-63.798;2022-10-16T04:07:35;101557.38;;;14.97;84.72
66703;BME280;60933;46.398;-63.798;2022-10-16T04:10:01;101551.34;;;14.95;84.90
66703;BME280;60933;46.398;-63.798;2022-10-16T04:12:27;101553.03;;;14.98;85.34
66703;BME280;60933;46.398;-63.798;2022-10-16T04:14:53;101549.66;;;14.94;85.28
66703;BME280;60933;46.398;-63.798;2022-10-16T04:17:19;101549.66;;;14.94;85.46
66703;BME280;60933;46.398;-63.798;2022-10-16T04:19:46;101547.97;;;14.93;85.56
66703;BME280;60933;46.398;-63.798;2022-10-16T04:22:12;101536.75;;;14.91;85.45
66703;BME280;60933;46.398;-63.798;2022-10-16T04:24:38;101548.91;;;14.91;85.37
66703;BME280;60933;46.398;-63.798;2022-10-16T04:27:04;101536.84;;;14.88;84.38
66703;BME280;60933;46.398;-63.798;2022-10-16T04:29:30;101537.66;;;14.90;84.97
66703;BME280;60933;46.398;-63.798;2022-10-16T04:31:56;101525.63;;;14.87;84.61
66703;BME280;60933;46.398;-63.798;2022-10-16T04:34:22;101529.06;;;14.88;84.74
66703;BME280;60933;46.398;-63.798;2022-10-16T04:36:48;101532.47;;;14.90;84.56
66703;BME280;60933;46.398;-63.798;2022-10-16T04:39:15;101521.22;;;14.90;84.84
66703;BME280;60933;46.398;-63.798;2022-10-16T04:41:42;101526.44;;;14.90;84.63
66703;BME280;60933;46.398;-63.798;2022-10-16T04:44:08;101523.06;;;14.86;84.19
66703;BME280;60933;46.398;-63.798;2022-10-16T04:46:34;101525.50;;;14.91;84.81
66703;BME280;60933;46.398;-63.798;2022-10-16T04:49:00;101529.03;;;14.90;84.77
66703;BME280;60933;46.398;-63.798;2022-10-16T04:51:26;101528.16;;;14.89;84.73
66703;BME280;60933;46.398;-63.798;2022-10-16T04:53:53;101515.28;;;14.84;84.42
66703;BME280;60933;46.398;-63.798;2022-10-16T04:56:20;101525.63;;;14.87;84.83
66703;BME280;60933;46.398;-63.798;2022-10-16T04:58:47;101523.84;;;14.88;84.92
66703;BME280;60933;46.398;-63.798;2022-10-16T05:01:13;101514.47;;;14.84;85.13
66703;BME280;60933;46.398;-63.798;2022-10-16T05:03:39;101519.66;;;14.84;84.71
66703;BME280;60933;46.398;-63.798;2022-10-16T05:06:06;101521.31;;;14.86;85.00
66703;BME280;60933;46.398;-63.798;2022-10-16T05:08:33;101522.19;;;14.85;85.36
66703;BME280;60933;46.398;-63.798;2022-10-16T05:10:59;101530.88;;;14.86;85.46
66703;BME280;60933;46.398;-63.798;2022-10-16T05:13:25;101524.84;;;14.84;85.46
66703;BME280;60933;46.398;-63.798;2022-10-16T05:15:51;101522.25;;;14.84;85.85
66703;BME280;60933;46.398;-63.798;2022-10-16T05:18:17;101517.94;;;14.83;85.86
66703;BME280;60933;46.398;-63.798;2022-10-16T05:20:44;101519.66;;;14.84;86.08
66703;BME280;60933;46.398;-63.798;2022-10-16T05:23:10;101512.75;;;14.83;85.83
66703;BME280;60933;46.398;-63.798;2022-10-16T05:25:37;101505.91;;;14.80;85.55
66703;BME280;60933;46.398;-63.798;2022-10-16T05:28:03;101510.22;;;14.81;85.81
66703;BME280;60933;46.398;-63.798;2022-10-16T05:30:29;101511.03;;;14.82;85.69
66703;BME280;60933;46.398;-63.798;2022-10-16T05:32:55;101505.00;;;14.81;86.12
66703;BME280;60933;46.398;-63.798;2022-10-16T05:35:21;101503.31;;;14.80;86.15
66703;BME280;60933;46.398;-63.798;2022-10-16T05:37:48;101489.59;;;14.75;85.20
66703;BME280;60933;46.398;-63.798;2022-10-16T05:40:14;101491.22;;;14.79;85.65
66703;BME280;60933;46.398;-63.798;2022-10-16T05:42:40;101492.91;;;14.80;85.69
66703;BME280;60933;46.398;-63.798;2022-10-16T05:45:09;101496.34;;;14.81;86.11
66703;BME280;60933;46.398;-63.798;2022-10-16T05:47:36;101481.66;;;14.80;85.53
66703;BME280;60933;46.398;-63.798;2022-10-16T05:50:02;101485.13;;;14.80;85.44
66703;BME280;60933;46.398;-63.798;2022-10-16T05:52:29;101484.22;;;14.81;86.08
66703;BME280;60933;46.398;-63.798;2022-10-16T05:54:55;101483.34;;;14.81;85.79
66703;BME280;60933;46.398;-63.798;2022-10-16T05:57:21;101475.63;;;14.79;84.84
66703;BME280;60933;46.398;-63.798;2022-10-16T05:59:47;101471.25;;;14.80;85.32
66703;BME280;60933;46.398;-63.798;2022-10-16T06:02:14;101462.69;;;14.76;85.67
66703;BME280;60933;46.398;-63.798;2022-10-16T06:04:40;101465.16;;;14.81;86.41
66703;BME280;60933;46.398;-63.798;2022-10-16T06:07:06;101465.28;;;14.78;85.32
66703;BME280;60933;46.398;-63.798;2022-10-16T06:09:32;101467.00;;;14.77;85.64
66703;BME280;60933;46.398;-63.798;2022-10-16T06:11:58;101473.97;;;14.77;84.93
66703;BME280;60933;46.398;-63.798;2022-10-16T06:14:24;101469.59;;;14.77;84.76
66703;BME280;60933;46.398;-63.798;2022-10-16T06:16:50;101469.59;;;14.77;83.98
66703;BME280;60933;46.398;-63.798;2022-10-16T06:19:16;101461.72;;;14.80;85.36
66703;BME280;60933;46.398;-63.798;2022-10-16T06:21:44;101457.41;;;14.79;84.40
66703;BME280;60933;46.398;-63.798;2022-10-16T06:24:10;101444.44;;;14.79;84.72
66703;BME280;60933;46.398;-63.798;2022-10-16T06:26:37;101438.34;;;14.80;85.97
66703;BME280;60933;46.398;-63.798;2022-10-16T06:29:04;101432.41;;;14.75;85.87
66703;BME280;60933;46.398;-63.798;2022-10-16T06:31:30;101428.00;;;14.79;85.57
66703;BME280;60933;46.398;-63.798;2022-10-16T06:33:59;101424.53;;;14.78;85.82
66703;BME280;60933;46.398;-63.798;2022-10-16T06:36:26;101428.00;;;14.79;86.17
66703;BME280;60933;46.398;-63.798;2022-10-16T06:38:52;101426.31;;;14.76;84.47
66703;BME280;60933;46.398;-63.798;2022-10-16T06:41:19;101425.41;;;14.79;85.91
66703;BME280;60933;46.398;-63.798;2022-10-16T06:43:46;101428.00;;;14.79;85.79
66703;BME280;60933;46.398;-63.798;2022-10-16T06:46:15;101422.78;;;14.79;85.81
66703;BME280;60933;46.398;-63.798;2022-10-16T06:48:42;101420.13;;;14.80;86.46
66703;BME280;60933;46.398;-63.798;2022-10-16T06:51:13;101412.50;;;14.76;85.85
66703;BME280;60933;46.398;-63.798;2022-10-16T06:53:59;101420.13;;;14.80;86.77
66703;BME280;60933;46.398;-63.798;2022-10-16T06:56:27;101406.28;;;14.80;86.36
66703;BME280;60933;46.398;-63.798;2022-10-16T06:58:55;101408.03;;;14.79;86.44
66703;BME280;60933;46.398;-63.798;2022-10-16T07:01:23;101402.00;;;14.79;86.07
66703;BME280;60933;46.398;-63.798;2022-10-16T07:03:49;101398.47;;;14.80;86.06
66703;BME280;60933;46.398;-63.798;2022-10-16T07:06:18;101401.94;;;14.80;86.44
66703;BME280;60933;46.398;-63.798;2022-10-16T07:08:46;101389.09;;;14.76;86.29
66703;BME280;60933;46.398;-63.798;2022-10-16T07:11:17;101390.69;;;14.80;87.01
66703;BME280;60933;46.398;-63.798;2022-10-16T07:13:45;101391.69;;;14.76;85.96
66703;BME280;60933;46.398;-63.798;2022-10-16T07:16:14;101392.59;;;14.75;85.63
66703;BME280;60933;46.398;-63.798;2022-10-16T07:18:42;101379.50;;;14.78;86.62
66703;BME280;60933;46.398;-63.798;2022-10-16T07:21:13;101383.84;;;14.77;86.04
66703;BME280;60933;46.398;-63.798;2022-10-16T07:23:40;101381.25;;;14.77;86.11
66703;BME280;60933;46.398;-63.798;2022-10-16T07:26:06;101375.22;;;14.77;85.66
66703;BME280;60933;46.398;-63.798;2022-10-16T07:28:33;101372.59;;;14.77;86.00
66703;BME280;60933;46.398;-63.798;2022-10-16T07:31:08;101372.50;;;14.80;86.84
66703;BME280;60933;46.398;-63.798;2022-10-16T07:33:36;101356.97;;;14.78;86.97
66703;BME280;60933;46.398;-63.798;2022-10-16T07:36:04;101351.09;;;14.71;86.23
66703;BME280;60933;46.398;-63.798;2022-10-16T07:38:30;101356.13;;;14.78;86.80
66703;BME280;60933;46.398;-63.798;2022-10-16T07:40:57;101356.97;;;14.78;86.12
66703;BME280;60933;46.398;-63.798;2022-10-16T07:43:25;101358.75;;;14.76;85.84
66703;BME280;60933;46.398;-63.798;2022-10-16T07:45:51;101350.94;;;14.78;85.98
66703;BME280;60933;46.398;-63.798;2022-10-16T07:48:17;101339.63;;;14.79;86.56
66703;BME280;60933;46.398;-63.798;2022-10-16T07:50:44;101331.84;;;14.79;86.75
66703;BME280;60933;46.398;-63.798;2022-10-16T07:53:11;101336.09;;;14.80;87.21
66703;BME280;60933;46.398;-63.798;2022-10-16T07:55:37;101340.56;;;14.76;86.48
66703;BME280;60933;46.398;-63.798;2022-10-16T07:58:04;101344.81;;;14.79;87.06
66703;BME280;60933;46.398;-63.798;2022-10-16T08:00:31;101338.84;;;14.75;86.30
66703;BME280;60933;46.398;-63.798;2022-10-16T08:02:58;101347.38;;;14.80;86.98
66703;BME280;60933;46.398;-63.798;2022-10-16T08:05:30;101339.63;;;14.79;86.99
66703;BME280;60933;46.398;-63.798;2022-10-16T08:07:57;101340.47;;;14.79;86.87
66703;BME280;60933;46.398;-63.798;2022-10-16T08:10:25;101328.47;;;14.75;86.80
66703;BME280;60933;46.398;-63.798;2022-10-16T08:12:52;101337.06;;;14.77;86.69
66703;BME280;60933;46.398;-63.798;2022-10-16T08:15:19;101326.81;;;14.72;86.68
66703;BME280;60933;46.398;-63.798;2022-10-16T08:17:57;101336.97;;;14.80;87.35
66703;BME280;60933;46.398;-63.798;2022-10-16T08:20:25;101329.31;;;14.76;86.75
66703;BME280;60933;46.398;-63.798;2022-10-16T08:22:51;101330.06;;;14.79;86.63
66703;BME280;60933;46.398;-63.798;2022-10-16T08:25:17;101327.41;;;14.81;86.76
66703;BME280;60933;46.398;-63.798;2022-10-16T08:27:43;101331.78;;;14.80;86.81
66703;BME280;60933;46.398;-63.798;2022-10-16T08:30:10;101337.94;;;14.78;86.22
66703;BME280;60933;46.398;-63.798;2022-10-16T08:32:37;101325.84;;;14.77;85.50
66703;BME280;60933;46.398;-63.798;2022-10-16T08:35:03;101326.63;;;14.79;85.75
66703;BME280;60933;46.398;-63.798;2022-10-16T08:37:32;101317.22;;;14.75;85.98
66703;BME280;60933;46.398;-63.798;2022-10-16T08:39:59;101323.97;;;14.80;85.51
66703;BME280;60933;46.398;-63.798;2022-10-16T08:42:40;101324.03;;;14.79;85.27
66703;BME280;60933;46.398;-63.798;2022-10-16T08:50:50;101318.84;;;14.79;85.37
66703;BME280;60933;46.398;-63.798;2022-10-16T08:53:29;101323.91;;;14.82;86.21
66703;BME280;60933;46.398;-63.798;2022-10-16T08:55:57;101332.59;;;14.81;86.08
66703;BME280;60933;46.398;-63.798;2022-10-16T08:58:28;101335.22;;;14.81;86.26
66703;BME280;60933;46.398;-63.798;2022-10-16T09:00:58;101341.31;;;14.80;86.28
66703;BME280;60933;46.398;-63.798;2022-10-16T09:09:08;101352.66;;;14.77;85.40
66703;BME280;60933;46.398;-63.798;2022-10-16T09:11:55;101346.50;;;14.80;85.45
66703;BME280;60933;46.398;-63.798;2022-10-16T09:14:36;101350.03;;;14.79;85.69
66703;BME280;60933;46.398;-63.798;2022-10-16T09:17:30;101344.09;;;14.74;86.48
66703;BME280;60933;46.398;-63.798;2022-10-16T09:22:46;101333.91;;;14.67;86.03
66703;BME280;60933;46.398;-63.798;2022-10-16T09:25:15;101353.59;;;14.75;86.00
66703;BME280;60933;46.398;-63.798;2022-10-16T09:27:45;101349.31;;;14.74;86.30
66703;BME280;60933;46.398;-63.798;2022-10-16T09:30:17;101350.19;;;14.72;85.94
66703;BME280;60933;46.398;-63.798;2022-10-16T09:32:47;101353.66;;;14.73;85.89
66703;BME280;60933;46.398;-63.798;2022-10-16T09:35:22;101350.19;;;14.72;86.44
66703;BME280;60933;46.398;-63.798;2022-10-16T09:37:51;101342.47;;;14.71;86.29
66703;BME280;60933;46.398;-63.798;2022-10-16T09:43:01;101338.16;;;14.70;86.99
66703;BME280;60933;46.398;-63.798;2022-10-16T09:45:29;101343.41;;;14.68;86.58
66703;BME280;60933;46.398;-63.798;2022-10-16T09:47:56;101336.53;;;14.67;86.76
66703;BME280;60933;46.398;-63.798;2022-10-16T09:50:25;101336.53;;;14.67;86.46
66703;BME280;60933;46.398;-63.798;2022-10-16T09:53:08;101333.09;;;14.65;85.91
66703;BME280;60933;46.398;-63.798;2022-10-16T09:55:36;101335.69;;;14.67;85.80
66703;BME280;60933;46.398;-63.798;2022-10-16T09:58:02;101331.38;;;14.66;84.95
66703;BME280;60933;46.398;-63.798;2022-10-16T10:00:28;101333.09;;;14.67;84.73
66703;BME280;60933;46.398;-63.798;2022-10-16T10:02:55;101338.28;;;14.67;84.80
66703;BME280;60933;46.398;-63.798;2022-10-16T10:05:24;101322.69;;;14.67;85.26
66703;BME280;60933;46.398;-63.798;2022-10-16T10:07:59;101318.34;;;14.67;85.69
66703;BME280;60933;46.398;-63.798;2022-10-16T10:10:30;101313.19;;;14.64;85.62
66703;BME280;60933;46.398;-63.798;2022-10-16T10:12:57;101305.59;;;14.58;86.30
66703;BME280;60933;46.398;-63.798;2022-10-16T10:15:24;101318.38;;;14.64;86.13
66703;BME280;60933;46.398;-63.798;2022-10-16T10:17:57;101331.50;;;14.61;85.17
66703;BME280;60933;46.398;-63.798;2022-10-16T10:20:28;101339.19;;;14.66;86.51
66703;BME280;60933;46.398;-63.798;2022-10-16T10:22:55;101329.72;;;14.63;85.86
66703;BME280;60933;46.398;-63.798;2022-10-16T10:25:49;101311.53;;;14.62;86.55
66703;BME280;60933;46.398;-63.798;2022-10-16T10:28:21;101318.38;;;14.64;86.51
66703;BME280;60933;46.398;-63.798;2022-10-16T10:33:40;101309.81;;;14.62;86.90
66703;BME280;60933;46.398;-63.798;2022-10-16T10:36:27;101305.50;;;14.61;86.84
66703;BME280;60933;46.398;-63.798;2022-10-16T10:38:59;101302.06;;;14.61;87.08
66703;BME280;60933;46.398;-63.798;2022-10-16T10:41:39;101309.84;;;14.61;87.19
66703;BME280;60933;46.398;-63.798;2022-10-16T10:45:07;101303.88;;;14.59;87.46
66703;BME280;60933;46.398;-63.798;2022-10-16T10:47:30;101306.47;;;14.59;87.38
66703;BME280;60933;46.398;-63.798;2022-10-16T10:56:04;101312.59;;;14.56;87.34
66703;BME280;60933;46.398;-63.798;2022-10-16T11:06:50;101313.47;;;14.56;86.83
66703;BME280;60933;46.398;-63.798;2022-10-16T11:09:25;101313.38;;;14.60;87.21
66703;BME280;60933;46.398;-63.798;2022-10-16T11:11:58;101316.75;;;14.62;87.25
66703;BME280;60933;46.398;-63.798;2022-10-16T11:14:30;101312.41;;;14.62;87.45
66703;BME280;60933;46.398;-63.798;2022-10-16T11:17:22;101315.78;;;14.66;87.75
66703;BME280;60933;46.398;-63.798;2022-10-16T11:19:53;101319.13;;;14.69;87.57
66703;BME280;60933;46.398;-63.798;2022-10-16T11:22:34;101322.63;;;14.68;87.01
66703;BME280;60933;46.398;-63.798;2022-10-16T11:25:20;101324.97;;;14.76;87.22
66703;BME280;60933;46.398;-63.798;2022-10-16T11:30:28;101329.13;;;14.82;86.41
66703;BME280;60933;46.398;-63.798;2022-10-16T11:40:59;101339.22;;;14.91;86.63
66703;BME280;60933;46.398;-63.798;2022-10-16T11:43:37;101345.22;;;14.93;86.96
66703;BME280;60933;46.398;-63.798;2022-10-16T11:46:17;101342.63;;;14.93;86.65
66703;BME280;60933;46.398;-63.798;2022-10-16T11:51:29;101325.84;;;15.02;86.78
66703;BME280;60933;46.398;-63.798;2022-10-16T11:54:14;101323.19;;;15.03;86.97
66703;BME280;60933;46.398;-63.798;2022-10-16T11:56:44;101335.97;;;15.10;85.76
66703;BME280;60933;46.398;-63.798;2022-10-16T12:01:51;101334.03;;;15.16;85.30
66703;BME280;60933;46.398;-63.798;2022-10-16T12:07:27;101329.34;;;15.26;85.23
66703;BME280;60933;46.398;-63.798;2022-10-16T12:09:58;101323.88;;;15.34;85.12
66703;BME280;60933;46.398;-63.798;2022-10-16T12:17:49;101338.13;;;15.47;85.04
66703;BME280;60933;46.398;-63.798;2022-10-16T12:20:22;101325.94;;;15.49;84.83
66703;BME280;60933;46.398;-63.798;2022-10-16T12:22:52;101322.31;;;15.54;84.81
66703;BME280;60933;46.398;-63.798;2022-10-16T12:25:32;101326.50;;;15.58;84.28
66703;BME280;60933;46.398;-63.798;2022-10-16T12:28:34;101316.78;;;15.63;84.21
66703;BME280;60933;46.398;-63.798;2022-10-16T12:30:58;101316.25;;;15.77;84.51
66703;BME280;60933;46.398;-63.798;2022-10-16T12:33:36;101305.66;;;15.83;84.42
66703;BME280;60933;46.398;-63.798;2022-10-16T12:36:07;101307.03;;;15.92;84.21
66703;BME280;60933;46.398;-63.798;2022-10-16T12:38:57;101305.78;;;16.02;83.92
66703;BME280;60933;46.398;-63.798;2022-10-16T12:41:35;101309.78;;;16.11;83.74
66703;BME280;60933;46.398;-63.798;2022-10-16T12:44:03;101300.41;;;16.07;83.58
66703;BME280;60933;46.398;-63.798;2022-10-16T12:49:21;101307.72;;;16.19;83.58
66703;BME280;60933;46.398;-63.798;2022-10-16T12:51:50;101309.34;;;16.22;83.02
66703;BME280;60933;46.398;-63.798;2022-10-16T12:54:31;101304.88;;;16.25;83.07
66703;BME280;60933;46.398;-63.798;2022-10-16T12:57:13;101301.25;;;16.29;83.16
66703;BME280;60933;46.398;-63.798;2022-10-16T13:08:51;101299.84;;;16.43;82.58
66703;BME280;60933;46.398;-63.798;2022-10-16T13:18:06;101286.19;;;16.58;81.99
66703;BME280;60933;46.398;-63.798;2022-10-16T13:28:52;101270.84;;;16.93;81.06
66703;BME280;60933;46.398;-63.798;2022-10-16T13:31:21;101259.25;;;17.01;80.61
66703;BME280;60933;46.398;-63.798;2022-10-16T13:33:55;101267.50;;;17.11;80.40
66703;BME280;60933;46.398;-63.798;2022-10-16T13:36:29;101258.63;;;17.15;79.95
66703;BME280;60933;46.398;-63.798;2022-10-16T13:39:15;101261.19;;;17.16;79.98
66703;BME280;60933;46.398;-63.798;2022-10-16T13:41:43;101269.13;;;17.13;80.04
66703;BME280;60933;46.398;-63.798;2022-10-16T13:44:19;101261.50;;;17.08;79.94
66703;BME280;60933;46.398;-63.798;2022-10-16T13:46:46;101260.53;;;17.11;79.98
66703;BME280;60933;46.398;-63.798;2022-10-16T13:49:16;101249.97;;;17.14;79.83
66703;BME280;60933;46.398;-63.798;2022-10-16T13:51:59;101242.69;;;17.21;79.86
66703;BME280;60933;46.398;-63.798;2022-10-16T13:54:27;101250.31;;;17.25;79.54
66703;BME280;60933;46.398;-63.798;2022-10-16T13:56:56;101247.78;;;17.24;79.62
66703;BME280;60933;46.398;-63.798;2022-10-16T13:59:34;101248.50;;;17.28;79.55
66703;BME280;60933;46.398;-63.798;2022-10-16T14:02:09;101248.41;;;17.29;79.36
66703;BME280;60933;46.398;-63.798;2022-10-16T14:04:41;101239.59;;;17.32;79.34
66703;BME280;60933;46.398;-63.798;2022-10-16T14:07:29;101242.88;;;17.37;79.12
66703;BME280;60933;46.398;-63.798;2022-10-16T14:10:04;101240.09;;;17.40;79.27
66703;BME280;60933;46.398;-63.798;2022-10-16T14:12:31;101245.31;;;17.40;79.08
66703;BME280;60933;46.398;-63.798;2022-10-16T14:14:58;101241.16;;;17.36;78.87
66703;BME280;60933;46.398;-63.798;2022-10-16T14:17:26;101240.09;;;17.40;78.83